createdAt,value
2018-07-31T00:00:19.681Z,19.71
2018-07-31T00:05:24.393Z,19.72
2018-07-31T00:10:29.168Z,19.67
2018-07-31T00:15:33.856Z,19.53
2018-07-31T00:20:38.563Z,19.66
2018-07-31T00:25:43.216Z,19.70
2018-07-31T00:30:47.907Z,19.56
2018-07-31T00:35:52.642Z,19.60
2018-07-31T00:40:56.980Z,19.30
2018-07-31T00:46:01.656Z,19.19
2018-07-31T00:51:06.347Z,19.05
2018-07-31T00:56:11.220Z,19.02
2018-07-31T01:01:15.933Z,18.96
2018-07-31T01:06:25.855Z,18.86
2018-07-31T01:11:30.573Z,18.91
2018-07-31T01:16:35.243Z,18.82
2018-07-31T01:21:40.702Z,18.66
2018-07-31T01:26:45.382Z,18.47
2018-07-31T01:31:50.114Z,18.40
2018-07-31T01:36:54.954Z,18.31
2018-07-31T01:41:59.607Z,18.21
2018-07-31T01:47:04.206Z,18.24
2018-07-31T01:52:08.919Z,18.36
2018-07-31T01:57:13.679Z,18.62
2018-07-31T02:02:18.407Z,18.35
2018-07-31T02:12:26.776Z,18.17
2018-07-31T02:17:31.462Z,18.12
2018-07-31T02:22:36.148Z,17.89
2018-07-31T02:27:40.951Z,18.04
2018-07-31T02:32:45.699Z,17.94
2018-07-31T02:37:50.704Z,17.64
2018-07-31T02:42:55.413Z,17.74
2018-07-31T02:48:00.081Z,17.69
2018-07-31T02:53:04.736Z,17.59
2018-07-31T02:58:09.504Z,17.38
2018-07-31T03:03:14.140Z,17.30
2018-07-31T03:08:18.931Z,17.21
2018-07-31T03:13:23.612Z,17.18
2018-07-31T03:18:28.241Z,17.44
2018-07-31T03:23:32.870Z,17.35
2018-07-31T03:28:37.611Z,17.59
2018-07-31T03:33:42.260Z,17.64
2018-07-31T03:38:46.924Z,17.55
2018-07-31T03:43:51.551Z,17.53
2018-07-31T03:48:56.278Z,17.53
2018-07-31T03:54:01.029Z,17.57
2018-07-31T03:59:06.017Z,17.41
2018-07-31T04:04:10.959Z,17.51
2018-07-31T04:09:15.663Z,17.57
2018-07-31T04:14:20.295Z,17.77
2018-07-31T04:19:25.098Z,18.08
2018-07-31T04:24:29.887Z,18.90
2018-07-31T04:29:34.698Z,19.67
2018-07-31T04:34:39.455Z,20.73
2018-07-31T04:39:44.196Z,21.41
2018-07-31T04:44:48.868Z,21.62
2018-07-31T04:49:53.471Z,22.60
2018-07-31T04:54:58.137Z,22.74
2018-07-31T05:00:03.258Z,23.16
2018-07-31T05:05:08.017Z,23.06
2018-07-31T05:10:14.002Z,23.30
2018-07-31T05:15:18.696Z,23.95
2018-07-31T05:20:23.329Z,24.34
2018-07-31T05:25:28.124Z,24.45
2018-07-31T05:30:32.816Z,24.58
2018-07-31T05:35:37.449Z,25.13
2018-07-31T05:40:43.219Z,24.68
2018-07-31T05:45:48.778Z,25.66
2018-07-31T05:50:53.615Z,26.44
2018-07-31T05:55:58.349Z,25.57
2018-07-31T06:01:03.146Z,25.92
2018-07-31T06:06:08.041Z,24.57
2018-07-31T06:11:12.801Z,24.75
2018-07-31T06:16:17.616Z,24.75
2018-07-31T06:21:22.324Z,25.39
2018-07-31T06:26:27.037Z,24.73
2018-07-31T06:31:31.757Z,24.67
2018-07-31T06:36:36.535Z,24.41
2018-07-31T06:41:41.204Z,25.92
2018-07-31T06:46:45.962Z,25.17
2018-07-31T06:51:50.669Z,25.39
2018-07-31T06:56:55.330Z,25.40
2018-07-31T07:02:00.048Z,25.67
2018-07-31T07:07:04.698Z,26.40
2018-07-31T07:12:09.496Z,26.77
2018-07-31T07:17:14.300Z,26.69
2018-07-31T07:22:19.007Z,27.16
2018-07-31T07:27:23.780Z,27.35
2018-07-31T07:32:28.628Z,27.75
2018-07-31T07:37:33.344Z,28.65
2018-07-31T07:42:37.675Z,28.23
2018-07-31T07:47:42.516Z,28.21
2018-07-31T07:52:47.390Z,28.73
2018-07-31T07:57:52.221Z,29.42
2018-07-31T08:02:56.893Z,29.68
2018-07-31T08:08:01.624Z,29.75
2018-07-31T08:13:06.274Z,29.94
2018-07-31T08:18:10.962Z,30.53
2018-07-31T08:23:15.847Z,30.11
2018-07-31T08:28:20.605Z,30.49
2018-07-31T08:33:25.295Z,30.83
2018-07-31T08:38:30.024Z,31.06
2018-07-31T08:43:34.744Z,31.34
2018-07-31T08:48:39.489Z,31.59
2018-07-31T08:53:43.838Z,32.31
2018-07-31T08:58:48.496Z,32.39
2018-07-31T09:03:53.294Z,32.44
2018-07-31T09:08:58.271Z,32.71
2018-07-31T09:14:03.031Z,32.69
2018-07-31T09:19:07.744Z,33.16
2018-07-31T09:24:12.549Z,32.85
2018-07-31T09:29:17.931Z,33.71
2018-07-31T09:34:22.568Z,33.59
2018-07-31T09:39:27.358Z,33.81
2018-07-31T09:44:32.115Z,34.43
2018-07-31T09:49:36.783Z,34.37
2018-07-31T09:54:41.459Z,35.07
2018-07-31T09:59:46.171Z,34.32
2018-07-31T10:04:50.952Z,35.12
2018-07-31T10:09:55.873Z,35.22
2018-07-31T10:15:00.559Z,35.40
2018-07-31T10:20:05.508Z,35.31
2018-07-31T10:25:10.356Z,35.90
2018-07-31T10:30:15.045Z,36.35
2018-07-31T10:35:19.771Z,36.37
2018-07-31T10:40:24.553Z,36.69
2018-07-31T10:45:29.213Z,36.38
2018-07-31T10:50:33.896Z,35.49
2018-07-31T10:55:38.635Z,34.99
2018-07-31T11:00:43.390Z,34.69
2018-07-31T11:05:48.055Z,34.75
2018-07-31T11:10:52.777Z,34.66
2018-07-31T11:15:57.508Z,34.84
2018-07-31T11:21:02.318Z,34.78
2018-07-31T11:26:07.348Z,35.26
2018-07-31T11:31:12.085Z,35.99
2018-07-31T11:36:17.012Z,36.65
2018-07-31T11:41:21.828Z,37.46
2018-07-31T11:46:26.570Z,37.76
2018-07-31T11:51:31.316Z,37.54
2018-07-31T11:56:36.084Z,37.45
2018-07-31T12:01:40.780Z,37.01
2018-07-31T12:06:45.607Z,36.25
2018-07-31T12:11:50.311Z,35.67
2018-07-31T12:16:55.020Z,35.19
2018-07-31T12:21:59.712Z,35.02
2018-07-31T12:27:04.600Z,35.36
2018-07-31T12:32:09.368Z,35.69
2018-07-31T12:37:14.182Z,37.10
2018-07-31T12:42:18.804Z,37.98
2018-07-31T12:47:23.598Z,37.42
2018-07-31T12:52:28.644Z,37.88
2018-07-31T12:57:33.462Z,38.12
2018-07-31T13:02:38.169Z,37.76
2018-07-31T13:07:48.398Z,37.45
2018-07-31T13:12:53.102Z,37.41
2018-07-31T13:17:57.896Z,37.99
2018-07-31T13:23:02.572Z,38.13
2018-07-31T13:28:07.387Z,37.28
2018-07-31T13:33:12.058Z,37.63
2018-07-31T13:38:16.832Z,37.35
2018-07-31T13:43:21.466Z,37.47
2018-07-31T13:48:26.055Z,36.73
2018-07-31T13:53:30.743Z,37.12
2018-07-31T13:58:35.500Z,37.30
2018-07-31T14:03:40.236Z,37.70
2018-07-31T14:08:44.925Z,37.93
2018-07-31T14:13:49.678Z,37.42
2018-07-31T14:18:54.944Z,37.80
2018-07-31T14:23:59.609Z,37.81
2018-07-31T14:29:04.348Z,37.98
2018-07-31T14:34:09.036Z,38.06
2018-07-31T14:39:13.879Z,38.43
2018-07-31T14:44:18.521Z,38.20
2018-07-31T14:49:23.692Z,36.98
2018-07-31T14:54:28.376Z,37.35
2018-07-31T14:59:33.060Z,37.40
2018-07-31T15:04:37.790Z,36.85
2018-07-31T15:09:42.590Z,37.62
2018-07-31T15:14:47.318Z,37.81
2018-07-31T15:19:52.314Z,38.11
2018-07-31T15:24:56.986Z,38.16
2018-07-31T15:30:01.692Z,37.59
2018-07-31T15:35:06.601Z,37.42
2018-07-31T15:40:11.311Z,37.24
2018-07-31T15:45:15.999Z,36.27
2018-07-31T15:50:20.629Z,36.48
2018-07-31T15:55:25.295Z,36.52
2018-07-31T16:00:30.023Z,36.60
2018-07-31T16:05:34.785Z,36.62
2018-07-31T16:10:39.445Z,36.94
2018-07-31T16:15:44.254Z,36.76
2018-07-31T16:20:48.949Z,36.64
2018-07-31T16:25:53.740Z,36.52
2018-07-31T16:30:58.420Z,36.59
2018-07-31T16:36:03.163Z,36.18
2018-07-31T16:41:08.495Z,36.05
2018-07-31T16:46:13.565Z,35.89
2018-07-31T16:51:18.555Z,35.96
2018-07-31T16:56:23.412Z,36.25
2018-07-31T17:01:28.081Z,36.21
2018-07-31T17:06:32.759Z,36.17
2018-07-31T17:11:37.416Z,36.03
2018-07-31T17:16:42.140Z,36.00
2018-07-31T17:21:46.993Z,36.25
2018-07-31T17:26:51.669Z,35.91
2018-07-31T17:31:56.715Z,35.22
2018-07-31T17:37:01.516Z,34.46
2018-07-31T17:42:06.316Z,34.04
2018-07-31T17:47:11.428Z,33.51
2018-07-31T17:52:16.567Z,33.28
2018-07-31T17:57:21.345Z,32.78
2018-07-31T18:02:26.105Z,32.72
2018-07-31T18:07:30.892Z,32.41
2018-07-31T18:12:35.828Z,32.18
2018-07-31T18:17:40.602Z,31.89
2018-07-31T18:22:45.286Z,31.60
2018-07-31T18:27:50.153Z,31.31
2018-07-31T18:32:56.328Z,31.16
2018-07-31T18:38:01.290Z,30.63
2018-07-31T18:43:06.107Z,30.09
2018-07-31T18:48:10.805Z,29.77
2018-07-31T18:53:15.614Z,29.26
2018-07-31T18:58:20.393Z,28.93
2018-07-31T19:03:25.867Z,28.65
2018-07-31T19:08:31.535Z,28.25
2018-07-31T19:13:36.675Z,28.00
2018-07-31T19:18:41.694Z,27.86
2018-07-31T19:23:46.715Z,27.58
2018-07-31T19:28:51.626Z,27.35
2018-07-31T19:33:56.481Z,27.04
2018-07-31T19:39:01.138Z,26.87
2018-07-31T19:44:06.201Z,26.72
2018-07-31T19:49:11.050Z,26.82
2018-07-31T19:54:15.815Z,26.57
2018-07-31T19:59:20.693Z,26.43
2018-07-31T20:04:25.690Z,26.17
2018-07-31T20:09:30.791Z,26.06
2018-07-31T20:14:35.530Z,25.81
2018-07-31T20:19:40.283Z,25.63
2018-07-31T20:24:45.022Z,25.56
2018-07-31T20:29:49.910Z,25.52
2018-07-31T20:34:54.886Z,25.27
2018-07-31T20:39:59.588Z,25.27
2018-07-31T20:45:04.551Z,25.13
2018-07-31T20:50:09.433Z,24.94
2018-07-31T20:55:14.244Z,24.77
2018-07-31T21:00:19.005Z,24.72
2018-07-31T21:05:23.725Z,24.61
2018-07-31T21:10:28.494Z,24.42
2018-07-31T21:15:33.239Z,24.33
2018-07-31T21:20:37.977Z,24.26
2018-07-31T21:25:42.706Z,24.05
2018-07-31T21:30:47.463Z,23.83
2018-07-31T21:35:52.193Z,23.76
2018-07-31T21:40:57.004Z,23.79
2018-07-31T21:46:01.877Z,23.75
2018-07-31T21:51:06.656Z,23.58
2018-07-31T21:56:11.415Z,23.51
2018-07-31T22:01:16.380Z,23.41
2018-07-31T22:06:21.269Z,23.36
2018-07-31T22:11:26.038Z,23.28
2018-07-31T22:16:30.680Z,23.40
2018-07-31T22:21:35.366Z,23.67
2018-07-31T22:26:40.205Z,23.58
2018-07-31T22:31:45.045Z,23.59
2018-07-31T22:36:49.377Z,23.66
2018-07-31T22:41:54.176Z,23.90
2018-07-31T22:47:11.709Z,24.12
2018-07-31T22:52:16.405Z,24.05
2018-07-31T22:57:21.082Z,24.01
2018-07-31T23:02:25.912Z,23.95
2018-07-31T23:07:30.709Z,23.96
2018-07-31T23:12:35.566Z,23.24
2018-07-31T23:17:40.271Z,23.04
2018-07-31T23:22:48.680Z,22.89
2018-07-31T23:27:53.403Z,22.80
2018-07-31T23:32:58.091Z,22.53
2018-07-31T23:38:02.736Z,22.47
2018-07-31T23:43:07.420Z,22.32
2018-07-31T23:48:12.076Z,22.25
2018-07-31T23:53:16.719Z,22.25
2018-07-31T23:58:21.372Z,22.25
